createdAt,value
2022-09-12T00:00:25.992Z,16.40
2022-09-12T00:03:17.550Z,13.00
2022-09-12T00:05:47.985Z,12.40
2022-09-12T00:08:15.791Z,10.30
2022-09-12T00:10:48.120Z,10.20
2022-09-12T00:13:15.907Z,10.70
2022-09-12T00:15:48.664Z,15.50
2022-09-12T00:18:20.012Z,14.90
2022-09-12T00:20:50.314Z,12.00
2022-09-12T00:23:19.513Z,11.10
2022-09-12T00:25:50.982Z,11.70
2022-09-12T00:28:21.411Z,7.40
2022-09-12T00:30:51.736Z,11.70
2022-09-12T00:33:19.731Z,13.50
2022-09-12T00:35:55.597Z,8.70
2022-09-12T00:38:23.516Z,13.10
2022-09-12T00:40:51.288Z,14.10
2022-09-12T00:43:43.781Z,12.50
2022-09-12T00:46:19.892Z,10.30
2022-09-12T00:49:04.479Z,10.40
2022-09-12T00:51:38.094Z,10.10
2022-09-12T00:54:15.583Z,12.10
2022-09-12T00:56:47.931Z,12.10
2022-09-12T00:59:25.458Z,13.00
2022-09-12T01:01:56.537Z,10.30
2022-09-12T01:04:29.584Z,11.40
2022-09-12T01:07:02.216Z,11.40
2022-09-12T01:09:34.541Z,12.50
2022-09-12T01:12:06.648Z,9.70
2022-09-12T01:14:39.438Z,8.80
2022-09-12T01:17:11.593Z,12.60
2022-09-12T01:20:28.836Z,11.10
2022-09-12T01:23:15.659Z,14.40
2022-09-12T01:25:55.258Z,11.70
2022-09-12T01:28:49.001Z,10.60
2022-09-12T01:31:56.259Z,12.60
2022-09-12T01:34:51.363Z,13.00
2022-09-12T01:37:41.935Z,11.40
2022-09-12T01:40:19.214Z,11.70
2022-09-12T01:42:56.865Z,12.60
2022-09-12T01:45:42.994Z,10.80
2022-09-12T01:48:24.730Z,9.30
2022-09-12T01:51:02.463Z,9.50
2022-09-12T01:53:38.481Z,8.50
2022-09-12T01:56:22.800Z,8.50
2022-09-12T01:58:58.777Z,9.20
2022-09-12T02:01:38.565Z,13.20
2022-09-12T02:04:41.309Z,9.70
2022-09-12T02:07:24.103Z,9.90
2022-09-12T02:10:12.095Z,10.90
2022-09-12T02:12:57.041Z,10.90
2022-09-12T02:15:40.548Z,8.90
2022-09-12T02:18:14.543Z,12.20
2022-09-12T02:20:49.235Z,11.70
2022-09-12T02:23:35.172Z,12.80
2022-09-12T02:26:21.456Z,12.20
2022-09-12T02:28:49.794Z,9.50
2022-09-12T02:31:49.415Z,9.70
2022-09-12T02:34:36.167Z,8.80
2022-09-12T02:37:16.595Z,9.90
2022-09-12T02:39:51.070Z,12.50
2022-09-12T02:42:18.879Z,8.10
2022-09-12T02:44:50.571Z,9.30
2022-09-12T02:47:31.488Z,11.50
2022-09-12T02:50:05.269Z,10.30
2022-09-12T02:52:33.250Z,9.90
2022-09-12T02:55:05.818Z,10.00
2022-09-12T02:57:33.961Z,11.50
2022-09-12T03:00:08.077Z,9.50
2022-09-12T03:02:42.129Z,10.90
2022-09-12T03:05:33.525Z,10.00
2022-09-12T03:08:10.494Z,11.70
2022-09-12T03:10:56.188Z,10.90
2022-09-12T03:13:46.050Z,10.00
2022-09-12T03:16:29.697Z,12.90
2022-09-12T03:19:36.873Z,13.10
2022-09-12T03:22:34.060Z,14.70
2022-09-12T03:25:18.604Z,17.30
2022-09-12T03:28:13.208Z,10.60
2022-09-12T03:30:48.623Z,8.50
2022-09-12T03:33:24.268Z,9.60
2022-09-12T03:35:56.130Z,11.70
2022-09-12T03:38:24.399Z,8.40
2022-09-12T03:40:54.822Z,13.00
2022-09-12T03:43:25.469Z,14.30
2022-09-12T03:45:54.591Z,14.00
2022-09-12T03:48:24.595Z,12.80
2022-09-12T03:50:52.336Z,16.40
2022-09-12T03:53:20.841Z,12.60
2022-09-12T03:55:48.581Z,13.80
2022-09-12T03:58:20.133Z,11.40
2022-09-12T04:00:51.931Z,12.50
2022-09-12T04:03:24.232Z,14.00
2022-09-12T04:05:52.014Z,9.90
2022-09-12T04:08:21.718Z,6.70
2022-09-12T04:10:49.662Z,9.50
2022-09-12T04:13:17.594Z,10.80
2022-09-12T04:15:57.084Z,10.80
2022-09-12T04:18:26.842Z,11.50
2022-09-12T04:20:55.372Z,11.00
2022-09-12T04:23:26.240Z,12.30
2022-09-12T04:26:01.604Z,11.60
2022-09-12T04:28:34.293Z,10.80
2022-09-12T04:31:07.865Z,12.30
2022-09-12T04:36:12.537Z,13.10
2022-09-12T04:38:41.744Z,11.60
2022-09-12T04:41:15.650Z,10.40
2022-09-12T04:43:51.839Z,12.00
2022-09-12T04:46:24.752Z,11.20
2022-09-12T04:48:56.880Z,14.40
2022-09-12T04:51:31.240Z,9.60
2022-09-12T04:54:04.939Z,12.70
2022-09-12T04:56:40.486Z,13.20
2022-09-12T04:59:16.483Z,10.40
2022-09-12T05:01:44.552Z,12.80
2022-09-12T05:04:15.707Z,12.60
2022-09-12T05:06:52.071Z,13.70
2022-09-12T05:09:19.962Z,11.60
2022-09-12T05:12:07.631Z,13.60
2022-09-12T05:14:38.687Z,12.70
2022-09-12T05:17:16.050Z,14.70
2022-09-12T05:19:43.810Z,11.90
2022-09-12T05:22:18.406Z,12.70
2022-09-12T05:24:53.161Z,10.80
2022-09-12T05:27:26.206Z,14.20
2022-09-12T05:29:54.677Z,11.10
2022-09-12T05:32:22.616Z,10.90
2022-09-12T05:34:53.673Z,12.90
2022-09-12T05:37:29.290Z,9.70
2022-09-12T05:40:02.677Z,10.10
2022-09-12T05:42:30.680Z,14.00
2022-09-12T05:45:03.194Z,11.30
2022-09-12T05:47:31.143Z,16.60
2022-09-12T05:50:01.947Z,10.00
2022-09-12T05:52:34.449Z,12.80
2022-09-12T05:55:02.542Z,10.30
2022-09-12T05:57:35.050Z,14.20
2022-09-12T06:00:09.897Z,10.90
2022-09-12T06:02:37.869Z,10.80
2022-09-12T06:05:10.067Z,16.60
2022-09-12T06:07:37.779Z,13.20
2022-09-12T06:10:16.601Z,11.80
2022-09-12T06:12:44.513Z,8.80
2022-09-12T06:15:18.934Z,11.30
2022-09-12T06:17:51.420Z,15.30
2022-09-12T06:20:20.550Z,11.80
2022-09-12T06:22:48.484Z,11.60
2022-09-12T06:25:16.639Z,16.00
2022-09-12T06:27:49.311Z,12.90
2022-09-12T06:30:24.782Z,13.30
2022-09-12T06:32:59.198Z,12.70
2022-09-12T06:35:27.182Z,20.30
2022-09-12T06:37:57.447Z,12.20
2022-09-12T06:40:25.814Z,10.80
2022-09-12T06:42:58.031Z,15.80
2022-09-12T06:45:29.072Z,13.70
2022-09-12T06:48:04.817Z,12.80
2022-09-12T06:50:32.895Z,11.80
2022-09-12T06:53:03.682Z,12.10
2022-09-12T06:55:32.245Z,14.90
2022-09-12T06:58:00.321Z,13.20
2022-09-12T07:00:32.343Z,11.90
2022-09-12T07:03:00.246Z,16.20
2022-09-12T07:05:31.533Z,13.10
2022-09-12T07:07:59.330Z,11.90
2022-09-12T07:10:32.176Z,12.20
2022-09-12T07:13:02.130Z,11.40
2022-09-12T07:15:30.088Z,17.70
2022-09-12T07:17:57.896Z,15.10
2022-09-12T07:20:25.845Z,11.30
2022-09-12T07:22:53.887Z,16.90
2022-09-12T07:25:24.682Z,14.30
2022-09-12T07:27:55.649Z,11.10
2022-09-12T07:30:28.234Z,13.80
2022-09-12T07:32:56.380Z,16.40
2022-09-12T07:35:27.236Z,14.30
2022-09-12T07:37:55.162Z,9.90
2022-09-12T07:40:27.586Z,14.60
2022-09-12T07:43:00.218Z,14.00
2022-09-12T07:45:32.794Z,16.30
2022-09-12T07:48:05.291Z,13.60
2022-09-12T07:50:39.245Z,13.60
2022-09-12T07:53:14.545Z,16.80
2022-09-12T07:55:42.422Z,18.20
2022-09-12T07:58:13.440Z,12.80
2022-09-12T08:00:50.615Z,15.10
2022-09-12T08:03:18.723Z,18.00
2022-09-12T08:05:54.533Z,15.60
2022-09-12T08:08:22.587Z,12.50
2022-09-12T08:11:01.354Z,15.20
2022-09-12T08:13:32.873Z,15.70
2022-09-12T08:16:07.459Z,16.60
2022-09-12T08:18:40.626Z,11.70
2022-09-12T08:21:28.970Z,14.50
2022-09-12T08:24:03.997Z,15.10
2022-09-12T08:26:40.155Z,12.90
2022-09-12T08:29:08.070Z,14.20
2022-09-12T08:31:39.107Z,10.60
2022-09-12T08:34:17.103Z,11.50
2022-09-12T08:36:45.277Z,10.90
2022-09-12T08:39:15.223Z,13.80
2022-09-12T08:42:01.987Z,12.20
2022-09-12T08:45:06.926Z,11.10
2022-09-12T08:47:46.269Z,13.00
2022-09-12T08:50:26.406Z,14.50
2022-09-12T08:53:17.620Z,13.00
2022-09-12T08:55:53.863Z,13.00
2022-09-12T08:58:28.012Z,12.90
2022-09-12T09:01:14.650Z,10.80
2022-09-12T09:04:13.159Z,14.60
2022-09-12T09:06:48.310Z,14.60
2022-09-12T09:09:44.510Z,11.40
2022-09-12T09:12:28.604Z,14.20
2022-09-12T09:15:13.930Z,12.80
2022-09-12T09:17:51.179Z,13.80
2022-09-12T09:20:53.156Z,12.70
2022-09-12T09:23:33.437Z,15.60
2022-09-12T09:26:31.310Z,13.80
2022-09-12T09:29:07.259Z,12.10
2022-09-12T09:31:44.893Z,13.80
2022-09-12T09:34:22.451Z,11.20
2022-09-12T09:36:50.379Z,15.80
2022-09-12T09:39:36.957Z,14.90
2022-09-12T09:42:22.342Z,12.30
2022-09-12T09:44:59.804Z,11.30
2022-09-12T09:47:27.796Z,12.70
2022-09-12T09:49:55.561Z,11.20
2022-09-12T09:52:35.957Z,12.90
2022-09-12T09:55:08.826Z,12.80
2022-09-12T09:57:36.697Z,13.70
2022-09-12T10:00:31.432Z,12.40
2022-09-12T10:03:13.927Z,10.60
2022-09-12T10:05:57.286Z,12.40
2022-09-12T10:08:32.491Z,13.40
2022-09-12T10:11:27.203Z,12.70
2022-09-12T10:14:01.516Z,13.50
2022-09-12T10:16:55.402Z,14.10
2022-09-12T10:19:40.979Z,14.00
2022-09-12T10:22:20.077Z,11.40
2022-09-12T10:24:59.007Z,10.20
2022-09-12T10:27:36.526Z,10.60
2022-09-12T10:30:24.868Z,10.10
2022-09-12T10:33:10.031Z,15.90
2022-09-12T10:35:48.746Z,14.00
2022-09-12T10:38:27.344Z,13.90
2022-09-12T10:41:07.680Z,12.10
2022-09-12T10:43:36.847Z,11.20
2022-09-12T10:46:14.775Z,9.90
2022-09-12T10:49:13.054Z,15.80
2022-09-12T10:51:41.056Z,12.50
2022-09-12T10:54:14.627Z,11.70
2022-09-12T10:57:11.364Z,8.80
2022-09-12T10:59:45.098Z,19.10
2022-09-12T11:02:44.466Z,13.10
2022-09-12T11:05:27.722Z,13.00
2022-09-12T11:08:19.393Z,10.50
2022-09-12T11:11:02.467Z,11.10
2022-09-12T11:13:58.573Z,13.00
2022-09-12T11:16:43.091Z,12.20
2022-09-12T11:19:25.228Z,13.40
2022-09-12T11:22:31.109Z,14.10
2022-09-12T11:25:32.351Z,12.80
2022-09-12T11:28:21.011Z,15.40
2022-09-12T11:31:27.539Z,14.90
2022-09-12T11:34:02.738Z,11.80
2022-09-12T11:36:40.157Z,11.20
2022-09-12T11:39:17.352Z,13.30
2022-09-12T11:42:05.624Z,13.80
2022-09-12T11:44:56.265Z,9.60
2022-09-12T11:47:31.050Z,12.40
2022-09-12T11:50:06.032Z,16.30
2022-09-12T11:52:40.790Z,8.20
2022-09-12T11:55:19.631Z,9.70
2022-09-12T11:57:59.168Z,9.80
2022-09-12T12:00:36.686Z,9.30
2022-09-12T12:03:17.846Z,11.00
2022-09-12T12:06:09.840Z,7.80
2022-09-12T12:08:44.208Z,6.00
2022-09-12T12:11:37.615Z,9.60
2022-09-12T12:14:34.271Z,10.60
2022-09-12T12:17:17.908Z,12.00
2022-09-12T12:20:07.493Z,11.70
2022-09-12T12:22:51.897Z,11.60
2022-09-12T12:25:21.938Z,12.30
2022-09-12T12:28:01.965Z,13.00
2022-09-12T12:30:30.019Z,11.10
2022-09-12T12:33:27.230Z,13.40
2022-09-12T12:36:04.201Z,11.60
2022-09-12T12:38:41.013Z,9.70
2022-09-12T12:41:18.010Z,11.80
2022-09-12T12:43:56.454Z,12.80
2022-09-12T12:46:30.393Z,9.30
2022-09-12T12:49:11.819Z,16.10
2022-09-12T12:51:48.481Z,10.60
2022-09-12T12:54:33.039Z,8.80
2022-09-12T12:57:13.284Z,14.10
2022-09-12T13:00:09.779Z,12.30
2022-09-12T13:02:56.152Z,9.80
2022-09-12T13:05:26.729Z,14.20
2022-09-12T13:08:12.371Z,12.00
2022-09-12T13:10:50.433Z,11.10
2022-09-12T13:13:28.102Z,10.30
2022-09-12T13:16:00.780Z,15.70
2022-09-12T13:18:49.367Z,17.80
2022-09-12T13:21:27.845Z,12.40
2022-09-12T13:24:02.703Z,14.10
2022-09-12T13:26:40.574Z,12.80
2022-09-12T13:29:16.592Z,10.50
2022-09-12T13:31:47.579Z,15.20
2022-09-12T13:34:23.024Z,15.10
2022-09-12T13:37:21.581Z,10.80
2022-09-12T13:40:17.385Z,12.20
2022-09-12T13:42:49.094Z,10.10
2022-09-12T13:45:23.170Z,12.80
2022-09-12T13:48:00.183Z,11.50
2022-09-12T13:50:33.713Z,12.80
2022-09-12T13:53:06.946Z,14.60
2022-09-12T13:55:42.144Z,14.50
2022-09-12T13:58:32.225Z,12.50
2022-09-12T14:01:04.814Z,11.90
2022-09-12T14:03:59.042Z,12.20
2022-09-12T14:06:28.534Z,14.00
2022-09-12T14:08:58.717Z,13.90
2022-09-12T14:11:30.839Z,14.90
2022-09-12T14:14:07.432Z,14.20
2022-09-12T14:16:40.363Z,14.10
2022-09-12T14:19:10.412Z,13.30
2022-09-12T14:21:39.506Z,15.60
2022-09-12T14:24:12.624Z,18.00
2022-09-12T14:26:45.751Z,15.50
2022-09-12T14:29:17.571Z,11.70
2022-09-12T14:31:46.503Z,10.40
2022-09-12T14:34:15.902Z,16.70
2022-09-12T14:36:57.216Z,14.20
2022-09-12T14:39:38.739Z,11.00
2022-09-12T14:42:17.625Z,13.00
2022-09-12T14:45:15.614Z,12.20
2022-09-12T14:47:52.034Z,12.50
2022-09-12T14:50:26.342Z,14.00
2022-09-12T14:53:27.764Z,14.20
2022-09-12T14:56:07.102Z,17.00
2022-09-12T14:58:37.951Z,13.10
2022-09-12T15:01:05.878Z,11.70
2022-09-12T15:03:42.353Z,14.40
2022-09-12T15:06:31.568Z,10.80
2022-09-12T15:09:06.230Z,12.50
2022-09-12T15:11:34.222Z,10.80
2022-09-12T15:14:14.553Z,9.80
2022-09-12T15:16:43.633Z,10.60
2022-09-12T15:19:12.496Z,12.10
2022-09-12T15:21:41.393Z,12.40
2022-09-12T15:24:10.381Z,15.80
2022-09-12T15:26:40.242Z,15.80
2022-09-12T15:29:09.859Z,16.10
2022-09-12T15:31:40.892Z,15.30
2022-09-12T15:34:10.038Z,12.90
2022-09-12T15:36:41.202Z,12.40
2022-09-12T15:39:10.997Z,14.70
2022-09-12T15:41:41.090Z,12.70
2022-09-12T15:44:14.410Z,9.20
2022-09-12T15:46:42.251Z,12.50
2022-09-12T15:49:10.869Z,16.60
2022-09-12T15:51:41.166Z,16.40
2022-09-12T15:54:14.352Z,33.50
2022-09-12T15:56:45.211Z,20.80
2022-09-12T15:59:13.796Z,14.70
2022-09-12T16:01:42.568Z,17.00
2022-09-12T16:04:28.270Z,16.60
2022-09-12T16:06:58.527Z,16.00
2022-09-12T16:09:26.745Z,19.40
2022-09-12T16:11:56.660Z,17.60
2022-09-12T16:14:24.393Z,17.10
2022-09-12T16:16:54.728Z,14.60
2022-09-12T16:19:24.090Z,13.40
2022-09-12T16:21:53.143Z,20.70
2022-09-12T16:24:20.941Z,15.30
2022-09-12T16:26:50.804Z,21.00
2022-09-12T16:29:18.805Z,12.90
2022-09-12T16:31:47.225Z,16.80
2022-09-12T16:34:15.544Z,13.70
2022-09-12T16:36:47.260Z,14.60
2022-09-12T16:39:15.082Z,16.60
2022-09-12T16:41:44.018Z,15.60
2022-09-12T16:44:12.651Z,15.30
2022-09-12T16:46:41.101Z,15.80
2022-09-12T16:49:13.389Z,15.90
2022-09-12T16:51:47.787Z,14.50
2022-09-12T16:54:17.989Z,17.20
2022-09-12T16:56:47.340Z,16.30
2022-09-12T16:59:18.539Z,13.90
2022-09-12T17:01:48.725Z,15.80
2022-09-12T17:04:18.758Z,17.40
2022-09-12T17:06:50.318Z,19.10
2022-09-12T17:09:20.339Z,17.30
2022-09-12T17:11:50.373Z,15.70
2022-09-12T17:14:18.339Z,18.60
2022-09-12T17:16:51.704Z,24.50
2022-09-12T17:19:28.145Z,22.50
2022-09-12T17:21:57.425Z,22.70
2022-09-12T17:24:26.077Z,22.20
2022-09-12T17:26:54.345Z,19.20
2022-09-12T17:29:23.473Z,21.20
2022-09-12T17:31:52.222Z,22.20
2022-09-12T17:34:21.230Z,19.10
2022-09-12T17:36:50.215Z,20.10
2022-09-12T17:39:20.128Z,20.30
2022-09-12T17:41:52.136Z,22.60
2022-09-12T17:44:21.208Z,21.00
2022-09-12T17:46:50.307Z,22.70
2022-09-12T17:49:21.919Z,23.50
2022-09-12T17:51:52.085Z,22.60
2022-09-12T17:54:22.027Z,20.30
2022-09-12T17:56:51.985Z,21.50
2022-09-12T17:59:25.247Z,19.40
2022-09-12T18:02:13.090Z,18.70
2022-09-12T18:04:46.654Z,21.10
2022-09-12T18:07:18.589Z,19.80
2022-09-12T18:09:50.545Z,20.40
2022-09-12T18:12:20.768Z,19.40
2022-09-12T18:14:48.932Z,18.30
2022-09-12T18:17:17.631Z,18.10
2022-09-12T18:19:50.339Z,18.00
2022-09-12T18:22:22.772Z,20.80
2022-09-12T18:24:51.410Z,22.80
2022-09-12T18:27:19.676Z,23.20
2022-09-12T18:30:04.202Z,23.50
2022-09-12T18:32:37.373Z,19.70
2022-09-12T18:35:07.242Z,20.00
2022-09-12T18:37:35.706Z,18.90
2022-09-12T18:40:04.963Z,21.20
2022-09-12T18:42:33.585Z,24.40
2022-09-12T18:45:02.645Z,21.80
2022-09-12T18:47:31.010Z,22.80
2022-09-12T18:50:02.066Z,24.20
2022-09-12T18:52:30.898Z,23.00
2022-09-12T18:55:00.775Z,20.90
2022-09-12T18:57:31.333Z,22.90
2022-09-12T19:00:00.658Z,21.30
2022-09-12T19:02:29.395Z,20.90
2022-09-12T19:04:58.066Z,19.90
2022-09-12T19:07:26.670Z,17.00
2022-09-12T19:09:55.572Z,19.50
2022-09-12T19:12:24.626Z,18.50
2022-09-12T19:14:53.157Z,20.40
2022-09-12T19:17:21.830Z,17.90
2022-09-12T19:19:49.769Z,18.40
2022-09-12T19:22:18.269Z,20.50
2022-09-12T19:24:46.316Z,20.50
2022-09-12T19:27:14.579Z,19.40
2022-09-12T19:29:43.281Z,18.00
2022-09-12T19:32:11.254Z,20.90
2022-09-12T19:34:39.229Z,20.90
2022-09-12T19:37:07.394Z,20.20
2022-09-12T19:39:35.292Z,18.50
2022-09-12T19:42:03.994Z,21.00
2022-09-12T19:44:32.299Z,21.00
2022-09-12T19:47:01.004Z,20.60
2022-09-12T19:49:29.530Z,23.00
2022-09-12T19:51:57.456Z,20.80
2022-09-12T19:54:25.583Z,19.60
2022-09-12T19:56:54.368Z,21.90
2022-09-12T19:59:23.091Z,19.10
2022-09-12T20:01:51.482Z,20.80
2022-09-12T20:04:19.989Z,22.60
2022-09-12T20:06:47.938Z,19.40
2022-09-12T20:09:16.237Z,16.80
2022-09-12T20:11:44.191Z,20.80
2022-09-12T20:14:12.180Z,18.20
2022-09-12T20:16:40.269Z,18.00
2022-09-12T20:19:08.880Z,15.30
2022-09-12T20:21:37.497Z,15.20
2022-09-12T20:24:10.001Z,18.00
2022-09-12T20:26:40.432Z,17.30
2022-09-12T20:29:09.688Z,17.90
2022-09-12T20:31:40.384Z,16.80
2022-09-12T20:34:15.584Z,14.60
2022-09-12T20:36:44.039Z,20.10
2022-09-12T20:39:15.624Z,15.90
2022-09-12T20:41:44.150Z,20.50
2022-09-12T20:44:13.109Z,16.60
2022-09-12T20:46:42.573Z,15.30
2022-09-12T20:49:11.116Z,18.90
2022-09-12T20:51:39.729Z,14.60
2022-09-12T20:54:08.328Z,17.20
2022-09-12T20:56:38.156Z,18.90
2022-09-12T20:59:07.313Z,18.80
2022-09-12T21:01:35.308Z,18.10
2022-09-12T21:04:05.524Z,15.10
2022-09-12T21:06:33.561Z,18.50
2022-09-12T21:09:01.401Z,19.00
2022-09-12T21:11:30.723Z,18.80
2022-09-12T21:13:59.680Z,17.10
2022-09-12T21:16:27.724Z,19.30
2022-09-12T21:18:58.751Z,19.00
2022-09-12T21:21:28.019Z,15.70
2022-09-12T21:24:01.101Z,17.50
2022-09-12T21:26:29.646Z,17.20
2022-09-12T21:29:00.151Z,16.70
2022-09-12T21:31:28.050Z,15.10
2022-09-12T21:33:56.079Z,17.50
2022-09-12T21:36:24.778Z,18.50
2022-09-12T21:38:53.011Z,15.30
2022-09-12T21:41:21.218Z,16.70
2022-09-12T21:43:49.426Z,15.40
2022-09-12T21:46:18.891Z,15.50
2022-09-12T21:48:47.765Z,15.50
2022-09-12T21:51:15.954Z,14.60
2022-09-12T21:53:44.304Z,15.10
2022-09-12T21:56:12.249Z,15.90
2022-09-12T21:58:39.968Z,16.80
2022-09-12T22:01:11.868Z,15.10
2022-09-12T22:03:44.059Z,15.00
2022-09-12T22:06:14.379Z,14.10
2022-09-12T22:08:42.358Z,15.10
2022-09-12T22:11:11.090Z,15.20
2022-09-12T22:13:44.320Z,14.70
2022-09-12T22:16:13.408Z,16.30
2022-09-12T22:18:42.884Z,16.70
2022-09-12T22:21:15.164Z,13.90
2022-09-12T22:24:01.562Z,15.30
2022-09-12T22:26:35.028Z,15.90
2022-09-12T22:31:31.261Z,16.00
2022-09-12T22:34:00.210Z,15.40
2022-09-12T22:36:31.097Z,14.00
2022-09-12T22:39:01.083Z,15.40
2022-09-12T22:41:29.993Z,15.70
2022-09-12T22:43:58.645Z,16.40
2022-09-12T22:46:27.990Z,16.80
2022-09-12T22:48:56.168Z,14.80
2022-09-12T22:51:24.194Z,14.20
2022-09-12T22:53:53.001Z,15.80
2022-09-12T22:56:23.008Z,15.80
2022-09-12T22:58:51.433Z,13.90
2022-09-12T23:01:20.661Z,18.10
2022-09-12T23:03:50.874Z,13.40
2022-09-12T23:06:21.322Z,13.40
2022-09-12T23:08:49.305Z,14.00
2022-09-12T23:11:22.566Z,15.60
2022-09-12T23:13:51.046Z,12.40
2022-09-12T23:16:23.992Z,17.30
2022-09-12T23:18:54.075Z,13.30
2022-09-12T23:21:22.829Z,14.60
2022-09-12T23:23:51.662Z,14.50
2022-09-12T23:26:22.491Z,15.20
2022-09-12T23:28:56.063Z,13.00
2022-09-12T23:31:31.845Z,12.80
2022-09-12T23:34:06.579Z,12.10
2022-09-12T23:36:37.775Z,18.40
2022-09-12T23:39:06.816Z,15.10
2022-09-12T23:41:35.904Z,14.40
2022-09-12T23:44:04.915Z,13.10
2022-09-12T23:46:32.639Z,12.50
2022-09-12T23:49:01.609Z,13.00
2022-09-12T23:51:31.458Z,14.30
2022-09-12T23:53:59.375Z,12.90
2022-09-12T23:56:28.513Z,16.30
2022-09-12T23:58:56.502Z,14.10
